createdAt,value
2016-09-18T00:00:44.729Z,0
2016-09-18T00:01:44.753Z,0
2016-09-18T00:02:44.774Z,0
2016-09-18T00:03:44.800Z,0
2016-09-18T00:04:44.827Z,0
2016-09-18T00:05:44.850Z,0
2016-09-18T00:06:44.876Z,0
2016-09-18T00:07:44.906Z,0
2016-09-18T00:08:44.920Z,0
2016-09-18T00:09:44.937Z,0
2016-09-18T00:10:44.965Z,0
2016-09-18T00:11:44.983Z,0
2016-09-18T00:12:45.013Z,0
2016-09-18T00:13:45.034Z,0
2016-09-18T00:14:45.058Z,0
2016-09-18T00:15:45.074Z,0
2016-09-18T00:16:45.103Z,0
2016-09-18T00:17:45.131Z,0
2016-09-18T00:18:45.151Z,0
2016-09-18T00:19:45.167Z,0
2016-09-18T00:20:45.194Z,0
2016-09-18T00:21:45.208Z,0
2016-09-18T00:22:45.244Z,0
2016-09-18T00:23:45.266Z,0
2016-09-18T00:24:45.291Z,0
2016-09-18T00:25:45.311Z,0
2016-09-18T00:26:45.329Z,0
2016-09-18T00:27:45.352Z,0
2016-09-18T00:28:45.696Z,0
2016-09-18T00:29:45.713Z,0
2016-09-18T00:30:45.423Z,0
2016-09-18T00:31:45.449Z,0
2016-09-18T00:32:45.481Z,0
2016-09-18T00:33:45.493Z,0
2016-09-18T00:34:45.517Z,0
2016-09-18T00:35:51.918Z,0
2016-09-18T00:36:45.747Z,0
2016-09-18T00:37:45.761Z,0
2016-09-18T00:38:45.772Z,0
2016-09-18T00:39:45.779Z,0
2016-09-18T00:40:45.792Z,0
2016-09-18T00:41:45.785Z,0
2016-09-18T00:42:45.793Z,0
2016-09-18T00:43:45.764Z,0
2016-09-18T00:44:45.775Z,0
2016-09-18T00:45:45.772Z,0
2016-09-18T00:46:45.795Z,0
2016-09-18T00:47:45.813Z,0
2016-09-18T00:48:45.841Z,0
2016-09-18T00:49:45.859Z,0
2016-09-18T00:50:46.425Z,0
2016-09-18T00:51:45.912Z,0
2016-09-18T00:52:45.930Z,0
2016-09-18T00:53:45.973Z,0
2016-09-18T00:54:45.978Z,0
2016-09-18T00:55:46.003Z,0
2016-09-18T00:56:46.021Z,0
2016-09-18T00:57:46.046Z,0
2016-09-18T00:58:46.070Z,0
2016-09-18T00:59:46.094Z,0
2016-09-18T01:00:46.239Z,0
2016-09-18T01:01:46.245Z,0
2016-09-18T01:02:46.274Z,0
2016-09-18T01:03:46.418Z,0
2016-09-18T01:04:46.419Z,0
2016-09-18T01:05:46.434Z,0
2016-09-18T01:06:46.442Z,0
2016-09-18T01:07:46.452Z,0
2016-09-18T01:08:46.459Z,0
2016-09-18T01:09:46.459Z,0
2016-09-18T01:10:46.468Z,0
2016-09-18T01:11:46.790Z,0
2016-09-18T01:12:46.528Z,0
2016-09-18T01:13:46.523Z,0
2016-09-18T01:14:46.534Z,0
2016-09-18T01:15:46.545Z,0
2016-09-18T01:16:46.552Z,0
2016-09-18T01:17:46.599Z,0
2016-09-18T01:18:46.623Z,0
2016-09-18T01:19:46.631Z,0
2016-09-18T01:20:46.637Z,0
2016-09-18T01:21:46.663Z,0
2016-09-18T01:22:46.657Z,0
2016-09-18T01:23:46.655Z,0
2016-09-18T01:24:46.669Z,0
2016-09-18T01:25:46.693Z,0
2016-09-18T01:26:46.718Z,0
2016-09-18T01:27:46.738Z,0
2016-09-18T01:28:46.781Z,0
2016-09-18T01:29:46.794Z,0
2016-09-18T01:30:46.808Z,0
2016-09-18T01:31:46.829Z,0
2016-09-18T01:32:46.863Z,0
2016-09-18T01:33:46.877Z,0
2016-09-18T01:34:46.900Z,0
2016-09-18T01:35:46.920Z,0
2016-09-18T01:36:46.945Z,0
2016-09-18T01:37:46.967Z,0
2016-09-18T01:38:46.991Z,0
2016-09-18T01:39:47.011Z,0
2016-09-18T01:40:47.045Z,0
2016-09-18T01:41:47.054Z,0
2016-09-18T01:42:47.082Z,0
2016-09-18T01:43:47.113Z,0
2016-09-18T01:44:47.126Z,0
2016-09-18T01:45:47.155Z,0
2016-09-18T01:46:47.175Z,0
2016-09-18T01:47:47.201Z,0
2016-09-18T01:48:47.222Z,0
2016-09-18T01:49:47.244Z,0
2016-09-18T01:50:47.266Z,0
2016-09-18T01:51:47.306Z,0
2016-09-18T01:52:47.314Z,0
2016-09-18T01:53:47.337Z,0
2016-09-18T01:54:47.360Z,0
2016-09-18T01:55:47.379Z,0
2016-09-18T01:56:47.404Z,0
2016-09-18T01:57:47.428Z,0
2016-09-18T01:58:47.451Z,0
2016-09-18T01:59:47.472Z,0
2016-09-18T02:00:47.492Z,0
2016-09-18T02:01:47.519Z,0
2016-09-18T02:02:47.539Z,0
2016-09-18T02:03:47.564Z,0
2016-09-18T02:04:47.588Z,0
2016-09-18T02:05:47.610Z,0
2016-09-18T02:06:47.635Z,0
2016-09-18T02:07:47.651Z,0
2016-09-18T02:08:47.681Z,0
2016-09-18T02:09:47.703Z,0
2016-09-18T02:10:47.730Z,0
2016-09-18T02:11:47.751Z,0
2016-09-18T02:12:48.095Z,0
2016-09-18T02:13:47.796Z,0
2016-09-18T02:14:47.818Z,0
2016-09-18T02:15:48.153Z,0
2016-09-18T02:16:47.864Z,0
2016-09-18T02:17:47.888Z,0
2016-09-18T02:18:47.911Z,0
2016-09-18T02:19:47.932Z,0
2016-09-18T02:20:47.957Z,0
2016-09-18T02:21:47.976Z,0
2016-09-18T02:22:48.004Z,0
2016-09-18T02:23:48.025Z,0
2016-09-18T02:24:48.047Z,0
2016-09-18T02:25:48.072Z,0
2016-09-18T02:26:48.091Z,0
2016-09-18T02:27:48.128Z,0
2016-09-18T02:28:48.141Z,0
2016-09-18T02:29:48.282Z,0
2016-09-18T02:30:48.286Z,0
2016-09-18T02:31:48.298Z,0
2016-09-18T02:32:48.463Z,0
2016-09-18T02:33:48.476Z,0
2016-09-18T02:34:48.474Z,0
2016-09-18T02:35:48.480Z,0
2016-09-18T02:36:48.491Z,0
2016-09-18T02:37:48.501Z,0
2016-09-18T02:38:48.497Z,0
2016-09-18T02:39:48.510Z,0
2016-09-18T02:40:48.520Z,0
2016-09-18T02:41:48.567Z,0
2016-09-18T02:42:48.564Z,0
2016-09-18T02:43:48.574Z,0
2016-09-18T02:44:48.589Z,0
2016-09-18T02:45:48.945Z,0
2016-09-18T02:46:48.640Z,0
2016-09-18T02:47:48.663Z,0
2016-09-18T02:48:48.674Z,0
2016-09-18T02:49:48.680Z,0
2016-09-18T02:50:48.687Z,0
2016-09-18T02:51:48.698Z,0
2016-09-18T02:52:48.805Z,0
2016-09-18T02:53:48.716Z,0
2016-09-18T02:54:48.734Z,0
2016-09-18T02:55:48.766Z,0
2016-09-18T02:56:48.781Z,0
2016-09-18T02:57:48.804Z,0
2016-09-18T02:58:48.827Z,0
2016-09-18T02:59:48.857Z,0
2016-09-18T03:00:48.873Z,0
2016-09-18T03:01:48.894Z,0
2016-09-18T03:02:48.925Z,0
2016-09-18T03:03:48.947Z,0
2016-09-18T03:04:48.962Z,0
2016-09-18T03:05:48.986Z,0
2016-09-18T03:06:49.010Z,0
2016-09-18T03:07:49.035Z,0
2016-09-18T03:08:49.058Z,0
2016-09-18T03:09:49.079Z,0
2016-09-18T03:10:49.107Z,0
2016-09-18T03:11:49.125Z,0
2016-09-18T03:12:49.154Z,0
2016-09-18T03:13:49.485Z,0
2016-09-18T03:14:49.194Z,0
2016-09-18T03:15:49.216Z,0
2016-09-18T03:16:49.241Z,0
2016-09-18T03:17:49.259Z,0
2016-09-18T03:18:49.284Z,0
2016-09-18T03:19:49.313Z,0
2016-09-18T03:20:49.333Z,0
2016-09-18T03:21:49.356Z,0
2016-09-18T03:22:49.372Z,0
2016-09-18T03:23:49.710Z,0
2016-09-18T03:24:49.422Z,0
2016-09-18T03:25:49.444Z,0
2016-09-18T03:26:49.472Z,0
2016-09-18T03:27:49.494Z,0
2016-09-18T03:28:49.517Z,0
2016-09-18T03:29:49.850Z,0
2016-09-18T03:30:49.561Z,0
2016-09-18T03:31:49.893Z,0
2016-09-18T03:32:49.604Z,0
2016-09-18T03:33:49.732Z,0
2016-09-18T03:34:49.661Z,0
2016-09-18T03:35:49.674Z,0
2016-09-18T03:36:49.695Z,0
2016-09-18T03:37:49.720Z,0
2016-09-18T03:38:49.736Z,0
2016-09-18T03:39:49.770Z,0
2016-09-18T03:40:49.784Z,0
2016-09-18T03:41:49.810Z,0
2016-09-18T03:42:50.163Z,0
2016-09-18T03:43:49.852Z,0
2016-09-18T03:44:49.878Z,0
2016-09-18T03:45:49.898Z,0
2016-09-18T03:46:49.926Z,0
2016-09-18T03:47:49.947Z,0
2016-09-18T03:48:49.969Z,0
2016-09-18T03:49:49.992Z,0
2016-09-18T03:50:50.008Z,0
2016-09-18T03:51:50.035Z,0
2016-09-18T03:52:50.106Z,0
2016-09-18T03:53:50.084Z,0
2016-09-18T03:54:50.104Z,0
2016-09-18T03:55:50.143Z,0
2016-09-18T03:56:50.150Z,0
2016-09-18T03:57:50.213Z,0
2016-09-18T03:58:50.196Z,0
2016-09-18T03:59:50.224Z,0
2016-09-18T04:00:50.249Z,0
2016-09-18T04:01:50.264Z,0
2016-09-18T04:02:50.286Z,0
2016-09-18T04:03:50.310Z,0
2016-09-18T04:04:50.329Z,0
2016-09-18T04:05:50.355Z,0
2016-09-18T04:06:50.374Z,0
2016-09-18T04:07:50.405Z,0
2016-09-18T04:08:50.424Z,0
2016-09-18T04:09:50.444Z,0
2016-09-18T04:10:50.468Z,0
2016-09-18T04:11:50.490Z,0
2016-09-18T04:12:50.517Z,0
2016-09-18T04:13:50.536Z,0
2016-09-18T04:14:50.558Z,0
2016-09-18T04:15:50.891Z,0
2016-09-18T04:16:50.621Z,0
2016-09-18T04:17:50.627Z,0
2016-09-18T04:18:50.650Z,0
2016-09-18T04:19:50.666Z,0
2016-09-18T04:20:50.694Z,0
2016-09-18T04:21:50.719Z,0
2016-09-18T04:22:50.742Z,0
2016-09-18T04:23:50.765Z,0
2016-09-18T04:24:50.788Z,0
2016-09-18T04:25:50.814Z,0
2016-09-18T04:26:50.846Z,0
2016-09-18T04:27:50.855Z,0
2016-09-18T04:28:50.882Z,0
2016-09-18T04:29:50.898Z,0
2016-09-18T04:30:50.922Z,0
2016-09-18T04:31:50.947Z,0
2016-09-18T04:32:50.966Z,4
2016-09-18T04:33:50.989Z,4
2016-09-18T04:34:51.014Z,4
2016-09-18T04:35:51.037Z,0
2016-09-18T04:36:51.052Z,4
2016-09-18T04:37:51.081Z,4
2016-09-18T04:38:51.102Z,8
2016-09-18T04:39:51.123Z,4
2016-09-18T04:40:51.158Z,8
2016-09-18T04:41:51.170Z,8
2016-09-18T04:42:51.201Z,8
2016-09-18T04:43:51.217Z,12
2016-09-18T04:44:51.236Z,12
2016-09-18T04:45:51.258Z,16
2016-09-18T04:46:51.281Z,16
2016-09-18T04:47:51.306Z,20
2016-09-18T04:48:51.326Z,20
2016-09-18T04:49:51.355Z,20
2016-09-18T04:50:51.374Z,20
2016-09-18T04:51:51.405Z,24
2016-09-18T04:52:51.472Z,24
2016-09-18T04:53:51.440Z,24
2016-09-18T04:54:51.462Z,28
2016-09-18T04:55:51.506Z,32
2016-09-18T04:56:51.518Z,36
2016-09-18T04:57:51.531Z,36
2016-09-18T04:58:51.549Z,40
2016-09-18T04:59:51.571Z,40
2016-09-18T05:00:51.596Z,48
2016-09-18T05:01:51.624Z,48
2016-09-18T05:02:51.641Z,52
2016-09-18T05:03:51.665Z,60
2016-09-18T05:04:51.687Z,60
2016-09-18T05:05:51.719Z,64
2016-09-18T05:06:51.731Z,68
2016-09-18T05:07:51.755Z,76
2016-09-18T05:08:51.770Z,80
2016-09-18T05:09:51.798Z,88
2016-09-18T05:10:51.836Z,100
2016-09-18T05:11:51.843Z,104
2016-09-18T05:12:51.866Z,112
2016-09-18T05:13:51.888Z,120
2016-09-18T05:14:51.910Z,120
2016-09-18T05:15:51.942Z,128
2016-09-18T05:16:51.959Z,136
2016-09-18T05:17:51.981Z,140
2016-09-18T05:18:51.997Z,144
2016-09-18T05:19:52.020Z,148
2016-09-18T05:20:52.041Z,156
2016-09-18T05:21:52.067Z,160
2016-09-18T05:22:52.083Z,168
2016-09-18T05:23:52.141Z,172
2016-09-18T05:24:52.128Z,180
2016-09-18T05:25:52.158Z,184
2016-09-18T05:26:52.179Z,188
2016-09-18T05:27:52.200Z,196
2016-09-18T05:28:52.242Z,204
2016-09-18T05:29:52.266Z,208
2016-09-18T05:30:52.262Z,220
2016-09-18T05:31:52.289Z,224
2016-09-18T05:32:52.312Z,232
2016-09-18T05:33:52.335Z,244
2016-09-18T05:34:52.359Z,244
2016-09-18T05:35:52.372Z,252
2016-09-18T05:36:52.403Z,260
2016-09-18T05:37:52.426Z,260
2016-09-18T05:38:52.446Z,264
2016-09-18T05:39:52.470Z,268
2016-09-18T05:40:52.502Z,272
2016-09-18T05:41:52.518Z,272
2016-09-18T05:42:52.534Z,280
2016-09-18T05:43:52.559Z,284
2016-09-18T05:44:52.576Z,284
2016-09-18T05:45:52.616Z,288
2016-09-18T05:46:52.627Z,292
2016-09-18T05:47:52.649Z,288
2016-09-18T05:48:52.682Z,284
2016-09-18T05:49:52.695Z,280
2016-09-18T05:50:52.717Z,272
2016-09-18T05:51:53.053Z,264
2016-09-18T05:52:52.767Z,260
2016-09-18T05:53:52.796Z,260
2016-09-18T05:54:52.808Z,256
2016-09-18T05:55:52.836Z,256
2016-09-18T05:56:52.844Z,252
2016-09-18T05:57:52.869Z,252
2016-09-18T05:58:53.199Z,252
2016-09-18T05:59:53.036Z,256
2016-09-18T06:00:53.048Z,256
2016-09-18T06:01:53.065Z,256
2016-09-18T06:02:53.088Z,256
2016-09-18T06:03:53.011Z,256
2016-09-18T06:04:53.022Z,256
2016-09-18T06:05:53.046Z,260
2016-09-18T06:06:53.068Z,264
2016-09-18T06:07:53.099Z,264
2016-09-18T06:08:53.112Z,264
2016-09-18T06:09:53.130Z,268
2016-09-18T06:10:53.158Z,272
2016-09-18T06:11:53.178Z,276
2016-09-18T06:12:53.206Z,280
2016-09-18T06:13:53.228Z,288
2016-09-18T06:14:53.249Z,300
2016-09-18T06:15:53.270Z,320
2016-09-18T06:16:53.292Z,340
2016-09-18T06:17:53.313Z,356
2016-09-18T06:18:53.335Z,360
2016-09-18T06:19:53.356Z,356
2016-09-18T06:20:53.377Z,348
2016-09-18T06:21:53.402Z,344
2016-09-18T06:22:53.504Z,336
2016-09-18T06:23:53.530Z,328
2016-09-18T06:24:53.467Z,320
2016-09-18T06:25:53.602Z,312
2016-09-18T06:26:53.697Z,304
2016-09-18T06:27:53.537Z,304
2016-09-18T06:28:53.558Z,308
2016-09-18T06:29:53.586Z,316
2016-09-18T06:30:53.635Z,316
2016-09-18T06:31:53.741Z,316
2016-09-18T06:32:53.744Z,320
2016-09-18T06:33:53.757Z,320
2016-09-18T06:34:53.928Z,324
2016-09-18T06:35:53.929Z,324
2016-09-18T06:36:53.943Z,328
2016-09-18T06:37:53.954Z,332
2016-09-18T06:38:53.996Z,336
2016-09-18T06:39:53.993Z,336
2016-09-18T06:40:54.007Z,340
2016-09-18T06:41:54.017Z,344
2016-09-18T06:42:54.027Z,344
2016-09-18T06:43:54.034Z,348
2016-09-18T06:44:54.034Z,352
2016-09-18T06:45:54.042Z,352
2016-09-18T06:46:54.051Z,352
2016-09-18T06:47:54.061Z,352
2016-09-18T06:48:54.105Z,352
2016-09-18T06:49:54.156Z,352
2016-09-18T06:50:54.039Z,348
2016-09-18T06:51:54.072Z,348
2016-09-18T06:52:54.092Z,352
2016-09-18T06:53:54.123Z,352
2016-09-18T06:54:54.136Z,352
2016-09-18T06:55:54.155Z,352
2016-09-18T06:56:54.181Z,356
2016-09-18T06:57:54.213Z,352
2016-09-18T06:58:54.327Z,356
2016-09-18T06:59:54.251Z,356
2016-09-18T07:00:54.268Z,356
2016-09-18T07:01:54.287Z,364
2016-09-18T07:02:54.315Z,364
2016-09-18T07:03:54.337Z,368
2016-09-18T07:04:54.356Z,376
2016-09-18T07:05:54.381Z,380
2016-09-18T07:06:54.405Z,380
2016-09-18T07:07:54.428Z,384
2016-09-18T07:08:54.452Z,380
2016-09-18T07:09:54.472Z,376
2016-09-18T07:10:54.493Z,376
2016-09-18T07:11:54.697Z,376
2016-09-18T07:12:54.662Z,372
2016-09-18T07:13:54.678Z,376
2016-09-18T07:14:54.896Z,380
2016-09-18T07:15:54.606Z,388
2016-09-18T07:16:54.628Z,388
2016-09-18T07:17:54.738Z,392
2016-09-18T07:18:54.672Z,392
2016-09-18T07:19:54.696Z,392
2016-09-18T07:20:54.956Z,392
2016-09-18T07:21:54.740Z,396
2016-09-18T07:22:54.768Z,396
2016-09-18T07:23:54.792Z,400
2016-09-18T07:24:54.806Z,396
2016-09-18T07:25:55.029Z,396
2016-09-18T07:26:54.972Z,396
2016-09-18T07:27:54.869Z,396
2016-09-18T07:28:54.895Z,396
2016-09-18T07:29:55.011Z,396
2016-09-18T07:30:54.942Z,396
2016-09-18T07:31:54.965Z,396
2016-09-18T07:32:55.027Z,396
2016-09-18T07:33:55.012Z,404
2016-09-18T07:34:55.145Z,400
2016-09-18T07:35:55.168Z,404
2016-09-18T07:36:55.386Z,404
2016-09-18T07:37:55.098Z,408
2016-09-18T07:38:55.226Z,408
2016-09-18T07:39:55.280Z,404
2016-09-18T07:40:55.195Z,408
2016-09-18T07:41:55.187Z,404
2016-09-18T07:42:55.215Z,408
2016-09-18T07:43:55.363Z,408
2016-09-18T07:44:55.368Z,404
2016-09-18T07:45:55.279Z,404
2016-09-18T07:46:55.489Z,408
2016-09-18T07:47:55.336Z,412
2016-09-18T07:48:55.480Z,412
2016-09-18T07:49:55.376Z,416
2016-09-18T07:50:55.508Z,424
2016-09-18T07:51:55.420Z,428
2016-09-18T07:52:55.438Z,436
2016-09-18T07:53:55.462Z,436
2016-09-18T07:54:55.483Z,452
2016-09-18T07:55:55.509Z,476
2016-09-18T07:56:55.529Z,468
2016-09-18T07:57:55.549Z,476
2016-09-18T07:58:55.571Z,456
2016-09-18T07:59:55.591Z,456
2016-09-18T08:00:55.619Z,460
2016-09-18T08:01:55.649Z,460
2016-09-18T08:02:55.757Z,484
2016-09-18T08:03:55.799Z,480
2016-09-18T08:04:55.915Z,488
2016-09-18T08:05:55.731Z,484
2016-09-18T08:06:55.758Z,480
2016-09-18T08:07:55.781Z,488
2016-09-18T08:08:55.804Z,484
2016-09-18T08:09:55.825Z,488
2016-09-18T08:10:55.850Z,488
2016-09-18T08:11:55.871Z,512
2016-09-18T08:12:55.914Z,492
2016-09-18T08:13:55.917Z,488
2016-09-18T08:14:55.937Z,484
2016-09-18T08:15:55.964Z,484
2016-09-18T08:16:55.992Z,488
2016-09-18T08:17:56.004Z,488
2016-09-18T08:18:56.029Z,488
2016-09-18T08:19:56.051Z,488
2016-09-18T08:20:56.078Z,492
2016-09-18T08:21:56.094Z,496
2016-09-18T08:22:56.123Z,496
2016-09-18T08:23:56.146Z,500
2016-09-18T08:24:56.178Z,504
2016-09-18T08:25:56.197Z,504
2016-09-18T08:26:56.321Z,508
2016-09-18T08:27:56.236Z,516
2016-09-18T08:28:56.262Z,520
2016-09-18T08:29:56.287Z,524
2016-09-18T08:30:56.314Z,528
2016-09-18T08:31:56.331Z,536
2016-09-18T08:32:56.353Z,548
2016-09-18T08:33:56.383Z,544
2016-09-18T08:34:56.414Z,552
2016-09-18T08:35:56.423Z,572
2016-09-18T08:36:56.448Z,580
2016-09-18T08:37:56.475Z,596
2016-09-18T08:38:56.492Z,628
2016-09-18T08:39:56.524Z,688
2016-09-18T08:40:56.543Z,756
2016-09-18T08:41:56.566Z,828
2016-09-18T08:42:56.597Z,892
2016-09-18T08:43:56.619Z,1000
2016-09-18T08:44:56.654Z,1092
2016-09-18T08:45:56.659Z,1120
2016-09-18T08:46:56.687Z,1164
2016-09-18T08:47:56.710Z,1260
2016-09-18T08:48:56.733Z,1436
2016-09-18T08:49:56.844Z,1744
2016-09-18T08:50:57.231Z,2036
2016-09-18T08:51:56.920Z,2160
2016-09-18T08:52:57.139Z,2124
2016-09-18T08:53:56.851Z,2072
2016-09-18T08:54:56.876Z,2012
2016-09-18T08:55:56.953Z,1972
2016-09-18T08:56:56.916Z,1928
2016-09-18T08:57:56.947Z,1892
2016-09-18T08:58:56.975Z,1864
2016-09-18T08:59:57.006Z,1828
2016-09-18T09:00:57.023Z,1808
2016-09-18T09:01:57.041Z,1804
2016-09-18T09:02:57.065Z,1784
2016-09-18T09:03:57.091Z,1736
2016-09-18T09:04:57.120Z,1672
2016-09-18T09:05:57.138Z,1644
2016-09-18T09:06:57.168Z,1672
2016-09-18T09:07:57.195Z,1792
2016-09-18T09:08:57.211Z,1984
2016-09-18T09:09:57.330Z,2168
2016-09-18T09:10:57.254Z,2268
2016-09-18T09:11:57.710Z,2288
2016-09-18T09:12:57.318Z,2312
2016-09-18T09:13:57.332Z,2172
2016-09-18T09:14:57.354Z,1968
2016-09-18T09:15:57.379Z,1860
2016-09-18T09:16:57.406Z,1760
2016-09-18T09:17:57.444Z,1728
2016-09-18T09:18:57.577Z,1708
2016-09-18T09:19:57.515Z,1616
2016-09-18T09:20:57.508Z,1652
2016-09-18T09:21:57.527Z,1636
2016-09-18T09:22:57.549Z,1644
2016-09-18T09:23:57.585Z,1516
2016-09-18T09:24:57.704Z,1520
2016-09-18T09:25:57.633Z,1568
2016-09-18T09:26:57.651Z,1824
2016-09-18T09:27:57.767Z,1996
2016-09-18T09:28:57.705Z,2100
2016-09-18T09:29:57.860Z,2176
2016-09-18T09:30:57.744Z,2152
2016-09-18T09:31:57.776Z,2192
2016-09-18T09:32:57.798Z,2268
2016-09-18T09:33:57.829Z,2340
2016-09-18T09:34:57.849Z,2340
2016-09-18T09:35:57.984Z,2312
2016-09-18T09:36:58.145Z,2488
2016-09-18T09:37:57.928Z,2376
2016-09-18T09:38:57.952Z,2232
2016-09-18T09:39:57.979Z,2132
2016-09-18T09:40:58.001Z,2096
2016-09-18T09:41:58.065Z,2144
2016-09-18T09:42:58.180Z,1948
2016-09-18T09:43:58.079Z,1792
2016-09-18T09:44:58.096Z,1768
2016-09-18T09:45:58.123Z,1724
2016-09-18T09:46:58.152Z,1476
2016-09-18T09:47:58.333Z,1428
2016-09-18T09:48:58.204Z,1404
2016-09-18T09:49:58.227Z,1228
2016-09-18T09:50:58.255Z,1184
2016-09-18T09:51:58.281Z,1048
2016-09-18T09:52:58.470Z,1056
2016-09-18T09:53:58.329Z,1360
2016-09-18T09:54:58.400Z,1396
2016-09-18T09:55:58.410Z,1108
2016-09-18T09:56:58.519Z,1184
2016-09-18T09:57:58.429Z,1436
2016-09-18T09:58:58.448Z,1016
2016-09-18T09:59:58.482Z,1420
2016-09-18T10:00:58.615Z,1600
2016-09-18T10:01:58.847Z,1600
2016-09-18T10:02:58.668Z,1056
2016-09-18T10:03:58.671Z,960
2016-09-18T10:04:58.610Z,900
2016-09-18T10:05:58.639Z,964
2016-09-18T10:06:58.656Z,1024
2016-09-18T10:07:58.819Z,928
2016-09-18T10:08:58.888Z,1048
2016-09-18T10:09:58.828Z,1072
2016-09-18T10:10:58.765Z,1056
2016-09-18T10:11:58.783Z,916
2016-09-18T10:12:58.812Z,948
2016-09-18T10:13:58.837Z,956
2016-09-18T10:14:58.861Z,1112
2016-09-18T10:15:59.122Z,1096
2016-09-18T10:16:59.025Z,972
2016-09-18T10:17:59.074Z,1068
2016-09-18T10:18:58.966Z,988
2016-09-18T10:19:59.090Z,1152
2016-09-18T10:20:59.015Z,1184
2016-09-18T10:21:59.043Z,1228
2016-09-18T10:22:59.389Z,1208
2016-09-18T10:23:59.093Z,1220
2016-09-18T10:24:59.121Z,1264
2016-09-18T10:25:59.145Z,1292
2016-09-18T10:26:59.279Z,1348
2016-09-18T10:27:59.410Z,1356
2016-09-18T10:28:59.219Z,1416
2016-09-18T10:29:59.366Z,1444
2016-09-18T10:30:59.288Z,1320
2016-09-18T10:31:59.627Z,1360
2016-09-18T10:32:59.327Z,1376
2016-09-18T10:33:59.350Z,1340
2016-09-18T10:34:59.378Z,1208
2016-09-18T10:35:59.405Z,1256
2016-09-18T10:36:59.430Z,1328
2016-09-18T10:37:59.527Z,1280
2016-09-18T10:38:59.482Z,1280
2016-09-18T10:39:59.508Z,1128
2016-09-18T10:40:59.532Z,1108
2016-09-18T10:41:59.561Z,1232
2016-09-18T10:42:59.589Z,1180
2016-09-18T10:43:59.924Z,1368
2016-09-18T10:44:59.657Z,1512
2016-09-18T10:45:59.660Z,1496
2016-09-18T10:46:59.694Z,1448
2016-09-18T10:47:59.715Z,1600
2016-09-18T10:48:59.746Z,1696
2016-09-18T10:49:59.921Z,1936
2016-09-18T10:50:59.923Z,2004
2016-09-18T10:51:59.830Z,2116
2016-09-18T10:52:59.898Z,2156
2016-09-18T10:53:59.874Z,2224
2016-09-18T10:54:59.901Z,2284
2016-09-18T10:55:59.934Z,2316
2016-09-18T10:56:59.954Z,2260
2016-09-18T10:57:59.985Z,2228
2016-09-18T10:59:00.009Z,2156
2016-09-18T11:00:00.038Z,1956
2016-09-18T11:01:00.056Z,1620
2016-09-18T11:02:00.085Z,1420
2016-09-18T11:03:00.114Z,1328
2016-09-18T11:04:00.206Z,1344
2016-09-18T11:05:00.166Z,1484
2016-09-18T11:06:00.192Z,1596
2016-09-18T11:07:00.220Z,1500
2016-09-18T11:08:00.558Z,1376
2016-09-18T11:09:00.279Z,1308
2016-09-18T11:10:00.296Z,1156
2016-09-18T11:11:00.326Z,1140
2016-09-18T11:12:00.356Z,1168
2016-09-18T11:13:00.389Z,1312
2016-09-18T11:14:00.405Z,1516
2016-09-18T11:15:00.436Z,1536
2016-09-18T11:16:00.458Z,1840
2016-09-18T11:17:00.488Z,1984
2016-09-18T11:18:00.529Z,1836
2016-09-18T11:19:00.694Z,1868
2016-09-18T11:20:00.567Z,2200
2016-09-18T11:21:00.592Z,2248
2016-09-18T11:22:00.755Z,2548
2016-09-18T11:23:00.651Z,2368
2016-09-18T11:24:00.672Z,1864
2016-09-18T11:25:00.705Z,2360
2016-09-18T11:26:00.849Z,2352
2016-09-18T11:27:00.756Z,2660
2016-09-18T11:28:00.783Z,3044
2016-09-18T11:29:00.806Z,2788
2016-09-18T11:30:00.841Z,2900
2016-09-18T11:31:00.879Z,2920
2016-09-18T11:32:00.894Z,2632
2016-09-18T11:33:00.915Z,2304
2016-09-18T11:34:01.259Z,2268
2016-09-18T11:35:00.969Z,2440
2016-09-18T11:36:01.001Z,2452
2016-09-18T11:37:01.024Z,2328
2016-09-18T11:38:01.056Z,2324
2016-09-18T11:39:01.130Z,2156
2016-09-18T11:40:01.218Z,2136
2016-09-18T11:41:01.131Z,2304
2016-09-18T11:42:01.468Z,2704
2016-09-18T11:43:01.188Z,2784
2016-09-18T11:44:01.327Z,2788
2016-09-18T11:45:01.268Z,2820
2016-09-18T11:46:01.283Z,2688
2016-09-18T11:47:01.295Z,2508
2016-09-18T11:48:01.438Z,2184
2016-09-18T11:49:01.455Z,2052
2016-09-18T11:50:01.563Z,1908
2016-09-18T11:51:01.531Z,1968
2016-09-18T11:52:01.524Z,1760
2016-09-18T11:53:01.527Z,1900
2016-09-18T11:54:01.566Z,2448
2016-09-18T11:55:01.576Z,2736
2016-09-18T11:56:01.661Z,2640
2016-09-18T11:57:01.652Z,2504
2016-09-18T11:58:01.711Z,2288
2016-09-18T11:59:01.783Z,2168
2016-09-18T12:00:01.793Z,1992
2016-09-18T12:01:01.801Z,2176
2016-09-18T12:02:01.808Z,2308
2016-09-18T12:03:01.948Z,2460
2016-09-18T12:04:01.950Z,2472
2016-09-18T12:05:01.909Z,2448
2016-09-18T12:06:01.838Z,2224
2016-09-18T12:07:01.845Z,2196
2016-09-18T12:08:01.869Z,2496
2016-09-18T12:09:01.904Z,2692
2016-09-18T12:10:01.922Z,2792
2016-09-18T12:11:02.131Z,2836
2016-09-18T12:12:01.991Z,2764
2016-09-18T12:13:02.013Z,2340
2016-09-18T12:14:02.038Z,2080
2016-09-18T12:15:02.063Z,2360
2016-09-18T12:16:02.092Z,2524
2016-09-18T12:17:02.122Z,2500
2016-09-18T12:18:02.148Z,2524
2016-09-18T12:19:02.186Z,2596
2016-09-18T12:20:02.320Z,2428
2016-09-18T12:21:02.352Z,2496
2016-09-18T12:22:02.267Z,2468
2016-09-18T12:23:02.292Z,2312
2016-09-18T12:24:02.325Z,2052
2016-09-18T12:25:02.342Z,1988
2016-09-18T12:26:02.469Z,2276
2016-09-18T12:27:02.512Z,2528
2016-09-18T12:28:02.616Z,2528
2016-09-18T12:29:02.460Z,2412
2016-09-18T12:30:02.619Z,2356
2016-09-18T12:31:02.510Z,2636
2016-09-18T12:32:02.537Z,2524
2016-09-18T12:33:02.681Z,2152
2016-09-18T12:34:02.688Z,2240
2016-09-18T12:35:02.652Z,2916
2016-09-18T12:36:02.663Z,2836
2016-09-18T12:37:02.673Z,2756
2016-09-18T12:38:02.730Z,2796
2016-09-18T12:39:02.735Z,2572
2016-09-18T12:40:02.875Z,1884
2016-09-18T12:41:02.903Z,2068
2016-09-18T12:42:02.819Z,2216
2016-09-18T12:43:02.843Z,2196
2016-09-18T12:44:02.893Z,1732
2016-09-18T12:45:03.015Z,1920
2016-09-18T12:46:03.134Z,2300
2016-09-18T12:47:03.067Z,2368
2016-09-18T12:48:02.987Z,1752
2016-09-18T12:49:03.013Z,2108
2016-09-18T12:50:03.042Z,2540
2016-09-18T12:51:03.069Z,2692
2016-09-18T12:52:03.094Z,2960
2016-09-18T12:53:03.127Z,2976
2016-09-18T12:54:03.151Z,2256
2016-09-18T12:55:03.299Z,2436
2016-09-18T12:56:03.238Z,2876
2016-09-18T12:57:03.236Z,2776
2016-09-18T12:58:03.273Z,2784
2016-09-18T12:59:03.295Z,2480
2016-09-18T13:00:03.430Z,2220
2016-09-18T13:01:03.356Z,1804
2016-09-18T13:02:03.383Z,1472
2016-09-18T13:03:03.407Z,1352
2016-09-18T13:04:03.446Z,1396
2016-09-18T13:05:03.459Z,1232
2016-09-18T13:06:03.490Z,1300
2016-09-18T13:07:03.928Z,1340
2016-09-18T13:08:03.661Z,1384
2016-09-18T13:09:03.573Z,1552
2016-09-18T13:10:03.613Z,1892
2016-09-18T13:11:03.627Z,1904
2016-09-18T13:12:03.662Z,1716
2016-09-18T13:13:03.682Z,1660
2016-09-18T13:14:03.715Z,1272
2016-09-18T13:15:03.743Z,1104
2016-09-18T13:16:03.772Z,1060
2016-09-18T13:17:03.914Z,1080
2016-09-18T13:18:03.941Z,1028
2016-09-18T13:19:03.866Z,1116
2016-09-18T13:20:03.887Z,1068
2016-09-18T13:21:03.917Z,1104
2016-09-18T13:22:03.940Z,1252
2016-09-18T13:23:03.974Z,1224
2016-09-18T13:24:03.994Z,1208
2016-09-18T13:25:04.032Z,1144
2016-09-18T13:26:04.051Z,1120
2016-09-18T13:27:04.083Z,1060
2016-09-18T13:28:04.228Z,1112
2016-09-18T13:29:04.146Z,1276
2016-09-18T13:30:04.164Z,1260
2016-09-18T13:31:04.201Z,1144
2016-09-18T13:32:04.236Z,1060
2016-09-18T13:33:04.364Z,1012
2016-09-18T13:34:04.398Z,1092
2016-09-18T13:35:04.308Z,1084
2016-09-18T13:36:04.475Z,920
2016-09-18T13:37:04.369Z,692
2016-09-18T13:38:04.392Z,780
2016-09-18T13:39:04.418Z,836
2016-09-18T13:40:04.575Z,808
2016-09-18T13:41:04.576Z,748
2016-09-18T13:42:04.511Z,812
2016-09-18T13:43:04.533Z,788
2016-09-18T13:44:04.678Z,688
2016-09-18T13:45:04.667Z,636
2016-09-18T13:46:04.940Z,472
2016-09-18T13:47:04.674Z,492
2016-09-18T13:48:04.684Z,644
2016-09-18T13:49:04.696Z,720
2016-09-18T13:50:04.839Z,872
2016-09-18T13:51:04.753Z,960
2016-09-18T13:52:04.786Z,1080
2016-09-18T13:53:04.926Z,1040
2016-09-18T13:54:04.843Z,980
2016-09-18T13:55:05.044Z,888
2016-09-18T13:56:05.027Z,760
2016-09-18T13:57:04.923Z,688